• Join FlightAware (Why Join?)
  • Login
  • US Flag 
02:35AM EDT


 

Airport Tracker/Info


-or-


 

Live Flight TrackerFlight Track Log ✈ RPA4911 ✈ 13-Jul-2013 ✈ KALB - KEWR

Flight Track Log - Related Links

Times and Time Zones

All times are in EDT time to prevent confusion due to time zone crossing. See the RPA4911 flight status page for this flight to view local times or setup timezone preferences in your user account.

Time Position Orientation Groundspeed Altitude Reporting Facility
EDT Latitude Longitude Course Direction KTS MPH feet Rate Location/Type
05:38AM 42.7694 -73.8089 194° South 176 203 1,500  Level Boston Center
05:40AM 42.7850 -73.9000 283° West 221 254 5,900 2,400 Climbing Boston Center
05:41AM 42.4715 -73.8529 196° South  Level Estimated
05:41AM 42.7264 -73.9156 191° South 196 226 8,400  Level Boston Center
05:42AM 42.3947 -73.9249 215° Southwest  Level FlightAware Approximate
05:42AM 42.6658 -73.9281 189° South 195 224 10,900  Level Boston Center
05:43AM 42.3019 -73.9385 198° South  Level Estimated
05:43AM 42.5906 -73.9461 190° South 237 273 12,100  Level Boston Center
05:44AM 42.2091 -73.9521 194° South  Level Estimated
05:44AM 42.5069 -73.9664 190° South 299 344 12,000  Level Boston Center
05:45AM 42.4192 -73.9869 190° South 315 362 12,000  Level Boston Center
05:46AM 42.3311 -74.0100 191° South 326 375 12,000  Level Boston Center
05:47AM 42.2392 -74.0300 189° South 326 375 12,000  Level Boston Center
05:48AM 42.1553 -74.0672 198° South 332 382 12,000  Level Boston Center
05:49AM 42.0778 -74.1017 198° South 332 382 12,000 -60 Level Boston Center
05:50AM 41.9917 -74.1411 199° South 327 376 11,900 -60 Descending Boston Center
05:51AM 41.8972 -74.1806 197° South 327 376 11,900  Level Boston Center
05:52AM 41.8197 -74.2147 198° South 327 376 11,900  Level Boston Center
05:53AM 41.7272 -74.2564 199° South 320 368 12,000 -600 Climbing Boston Center
05:54AM 41.6433 -74.2931 198° South 320 368 10,800 -1,020 Descending Boston Center
05:55AM 41.5697 -74.3214 196° South 297 342 10,000 -960 Descending Boston Center
05:56AM 41.5006 -74.3525 199° South 280 322 8,900 -900 Descending Boston Center
05:58AM 41.4099 -74.3803 193° South  Level FlightAware Approximate
05:58AM 41.3500 -74.4167 193° South 243 280 7,200  Level New York TRACON
05:59AM 41.2833 -74.4500 201° Southwest 249 287 7,000 -120 Descending New York TRACON
06:00AM 41.2167 -74.4667 191° South 252 290 7,000  Level New York TRACON
06:01AM 41.1500 -74.5000 201° Southwest 254 292 7,000 -420 Level New York TRACON
06:02AM 41.1000 -74.5167 194° South 250 288 6,300 -540 Descending New York TRACON
06:03AM 41.0333 -74.5333 191° South 243 280 6,000 -180 Descending New York TRACON
06:04AM 40.9667 -74.5500 191° South 249 287 6,000  Level New York TRACON
06:05AM 40.9000 -74.5500 180° South 247 284 6,000 -360 Level New York TRACON
06:06AM 40.8500 -74.5500 180° South 246 283 5,400 -840 Descending New York TRACON
06:07AM 40.7833 -74.5333 169° South 238 274 4,500 -1,140 Descending New York TRACON
06:08AM 40.7167 -74.5000 159° South 238 274 3,300 -780 Descending New York TRACON
06:09AM 40.6500 -74.4833 169° South 242 278 3,000 -360 Descending New York TRACON
06:10AM 40.6000 -74.4500 153° Southeast 246 283 2,700 -540 Descending New York TRACON
06:11AM 40.5667 -74.3833 123° Southeast 228 262 2,000 -360 Descending New York TRACON
06:12AM 40.5333 -74.3167 123° Southeast 199 229 2,000  Level New York TRACON
06:13AM 40.5333 -74.2667 90° East 210 242 2,000  Level New York TRACON